Terminal Aerodrome Forecast
Issued by NWS

Home | Current Version | Previous Version | Text Only | Print | Product List | Glossary On
Versions: 1 2 3 4 5 6 7 8 9 10 11 12
029
FTUS46 KHNX 302337
TAFFAT
TAF
KFAT 302337Z 0100/0124 31007KT P6SM FEW080
     FM010500 31012G20KT P6SM FEW200
     FM011200 32008KT P6SM FEW200=

USA.gov is the U.S. government's official web portal to all federal, state and local government web resources and services.